Terminal Aerodrome Forecast
Issued by NWS Detroit/Pontiac, MI

Home | Current Version | Previous Version | Text Only | Print | Product List | Glossary On
Versions: 1 2 3 4 5 6 7 8 9 10 11 12 13 14 15 16 17 18 19 20 21 22 23 24 25 26 27 28
916
FTUS43 KDTX 202055 AAA
TAFDTW
TAF AMD
KDTW 202055Z 2021/2124 23010KT P6SM BKN200
     FM210200 20007KT 5SM BR OVC015
     FM210800 18005KT 2SM BR OVC006
     FM211600 14005KT 1SM -SHRA BR OVC004=

USA.gov is the U.S. government's official web portal to all federal, state and local government web resources and services.